< < Back
Terminal Aerodrome Forecast


Current Version              Previous Versions:   1  2  3  4  5  6  7  8  9  

Terminal Aerodrome Forecast

575
FTUS42 KMLB 311122
TAFDAB
TAF
KDAB 311122Z 3112/0112 18009KT P6SM VCSH SCT015 BKN060 OVC250
     FM311400 21011KT P6SM VCSH SCT025 OVC100
     FM311700 22011G18KT P6SM VCSH SCT030 OVC060
     FM010000 20008KT P6SM VCSH FEW010 SCT040 BKN100=

Latest METAR

295
SAUS80 KWBC 311400 RRA
MTRDAB
METAR KDAB 311353Z 20009KT 10SM BKN016 BKN120 27/24 A2994 RMK AO2 SLP137
T02670239


USA.gov is the U.S. government's official web portal to all federal, state and local government web resources and services.